createdAt,value
2019-03-17T00:02:20.196Z,10.37
2019-03-17T00:04:48.693Z,10.37
2019-03-17T00:07:17.117Z,10.37
2019-03-17T00:09:45.862Z,10.38
2019-03-17T00:12:14.348Z,10.38
2019-03-17T00:14:42.782Z,10.38
2019-03-17T00:17:11.507Z,10.37
2019-03-17T00:19:40.130Z,10.37
2019-03-17T00:22:08.654Z,10.38
2019-03-17T00:24:37.493Z,10.40
2019-03-17T00:27:06.385Z,10.41
2019-03-17T00:29:34.820Z,10.42
2019-03-17T00:32:03.426Z,10.44
2019-03-17T00:34:43.249Z,10.45
2019-03-17T00:37:01.995Z,10.45
2019-03-17T00:39:30.577Z,10.42
2019-03-17T00:41:59.000Z,10.44
2019-03-17T00:44:27.433Z,10.44
2019-03-17T00:46:55.926Z,10.46
2019-03-17T00:49:24.352Z,10.48
2019-03-17T00:51:52.780Z,10.50
2019-03-17T00:54:21.587Z,10.52
2019-03-17T00:56:50.008Z,10.53
2019-03-17T00:59:18.493Z,10.54
2019-03-17T01:01:46.943Z,10.55
2019-03-17T01:04:15.474Z,10.53
2019-03-17T01:06:43.917Z,10.50
2019-03-17T01:09:12.358Z,10.47
2019-03-17T01:11:40.875Z,10.43
2019-03-17T01:14:09.301Z,10.41
2019-03-17T01:16:37.944Z,10.39
2019-03-17T01:19:06.433Z,10.37
2019-03-17T01:21:34.844Z,10.35
2019-03-17T01:24:03.299Z,10.35
2019-03-17T01:26:31.884Z,10.34
2019-03-17T01:29:00.523Z,10.33
2019-03-17T01:31:29.000Z,10.33
2019-03-17T01:33:57.445Z,10.34
2019-03-17T01:36:25.991Z,10.36
2019-03-17T01:38:54.453Z,10.38
2019-03-17T01:41:22.874Z,10.38
2019-03-17T01:43:51.318Z,10.39
2019-03-17T01:46:19.787Z,10.41
2019-03-17T01:48:48.228Z,10.44
2019-03-17T01:51:16.769Z,10.46
2019-03-17T01:53:45.385Z,10.48
2019-03-17T01:56:13.817Z,10.48
2019-03-17T01:58:42.308Z,10.48
2019-03-17T02:01:11.939Z,10.47
2019-03-17T02:03:40.752Z,10.49
2019-03-17T02:06:12.253Z,10.50
2019-03-17T02:08:41.168Z,10.49
2019-03-17T02:11:09.622Z,10.49
2019-03-17T02:13:38.077Z,10.49
2019-03-17T02:16:07.021Z,10.50
2019-03-17T02:18:35.468Z,10.51
2019-03-17T02:21:03.904Z,10.53
2019-03-17T02:23:32.399Z,10.54
2019-03-17T02:26:01.934Z,10.54
2019-03-17T02:28:30.413Z,10.57
2019-03-17T02:30:58.855Z,10.58
2019-03-17T02:33:27.299Z,10.58
2019-03-17T02:35:55.864Z,10.58
2019-03-17T02:38:24.306Z,10.60
2019-03-17T02:40:52.752Z,10.60
2019-03-17T02:43:21.759Z,10.61
2019-03-17T02:45:50.194Z,10.61
2019-03-17T02:48:18.735Z,10.63
2019-03-17T02:50:47.634Z,10.63
2019-03-17T02:53:16.056Z,10.63
2019-03-17T02:55:44.502Z,10.62
2019-03-17T02:58:13.070Z,10.62
2019-03-17T03:00:41.518Z,10.63
2019-03-17T03:03:09.950Z,10.65
2019-03-17T03:05:53.557Z,10.66
2019-03-17T03:08:08.683Z,10.67
2019-03-17T03:10:37.141Z,10.67
2019-03-17T03:13:05.769Z,10.64
2019-03-17T03:15:34.217Z,10.61
2019-03-17T03:18:02.629Z,10.56
2019-03-17T03:20:31.089Z,10.52
2019-03-17T03:22:59.526Z,10.48
2019-03-17T03:25:27.976Z,10.45
2019-03-17T03:27:56.670Z,10.44
2019-03-17T03:30:25.082Z,10.42
2019-03-17T03:32:53.621Z,10.41
2019-03-17T03:35:22.117Z,10.38
2019-03-17T03:37:50.563Z,10.36
2019-03-17T03:40:19.002Z,10.34
2019-03-17T03:42:47.901Z,10.33
2019-03-17T03:45:16.418Z,10.33
2019-03-17T03:47:44.856Z,10.32
2019-03-17T03:50:13.652Z,10.29
2019-03-17T03:52:42.035Z,10.26
2019-03-17T03:55:10.554Z,10.20
2019-03-17T03:57:39.067Z,10.12
2019-03-17T04:00:10.712Z,10.03
2019-03-17T04:02:39.366Z,9.95
2019-03-17T04:05:08.249Z,9.86
2019-03-17T04:07:36.669Z,9.81
2019-03-17T04:10:08.055Z,9.76
2019-03-17T04:12:36.916Z,9.73
2019-03-17T04:15:07.495Z,9.73
2019-03-17T04:17:35.919Z,9.72
2019-03-17T04:20:06.425Z,9.72
2019-03-17T04:22:34.881Z,9.73
2019-03-17T04:25:03.951Z,9.74
2019-03-17T04:27:32.925Z,9.76
2019-03-17T04:30:01.347Z,9.81
2019-03-17T04:32:29.785Z,9.83
2019-03-17T04:34:58.384Z,9.87
2019-03-17T04:37:26.825Z,9.90
2019-03-17T04:39:56.073Z,9.95
2019-03-17T04:42:24.529Z,10.01
2019-03-17T04:44:52.990Z,10.06
2019-03-17T04:47:21.428Z,10.08
2019-03-17T04:49:49.872Z,10.11
2019-03-17T04:52:18.319Z,10.14
2019-03-17T04:54:46.770Z,10.17
2019-03-17T04:57:15.342Z,10.21
2019-03-17T04:59:43.776Z,10.25
2019-03-17T05:02:13.655Z,10.26
2019-03-17T05:04:43.032Z,10.29
2019-03-17T05:07:11.472Z,10.31
2019-03-17T05:09:39.954Z,10.32
2019-03-17T05:12:08.662Z,10.32
2019-03-17T05:14:37.100Z,10.30
2019-03-17T05:17:05.540Z,10.24
2019-03-17T05:19:33.983Z,10.18
2019-03-17T05:22:02.490Z,10.12
2019-03-17T05:24:30.936Z,10.07
2019-03-17T05:26:59.406Z,10.03
2019-03-17T05:29:27.843Z,10.01
2019-03-17T05:31:56.277Z,9.98
2019-03-17T05:34:25.012Z,9.94
2019-03-17T05:37:05.593Z,9.90
2019-03-17T05:39:23.579Z,9.90
2019-03-17T05:41:52.366Z,9.87
2019-03-17T05:44:20.779Z,9.85
2019-03-17T05:46:49.218Z,9.82
2019-03-17T05:49:17.688Z,9.81
2019-03-17T05:51:46.142Z,9.77
2019-03-17T05:54:14.568Z,9.75
2019-03-17T05:56:43.236Z,9.74
2019-03-17T05:59:11.681Z,9.72
2019-03-17T06:01:40.120Z,9.70
2019-03-17T06:04:08.579Z,9.71
2019-03-17T06:06:37.849Z,9.71
2019-03-17T06:09:07.457Z,9.72
2019-03-17T06:11:35.983Z,9.72
2019-03-17T06:14:04.542Z,9.73
2019-03-17T06:16:32.956Z,9.75
2019-03-17T06:19:01.574Z,9.76
2019-03-17T06:21:29.993Z,9.78
2019-03-17T06:23:58.465Z,9.79
2019-03-17T06:26:27.007Z,9.78
2019-03-17T06:28:55.446Z,9.78
2019-03-17T06:31:23.877Z,9.78
2019-03-17T06:33:52.473Z,9.78
2019-03-17T06:36:20.853Z,9.78
2019-03-17T06:38:49.272Z,9.78
2019-03-17T06:41:18.618Z,9.75
2019-03-17T06:43:47.017Z,9.61
2019-03-17T06:46:15.453Z,9.22
2019-03-17T06:48:44.378Z,8.68
2019-03-17T06:51:12.768Z,8.26
2019-03-17T06:53:41.307Z,7.92
2019-03-17T06:56:09.751Z,7.63
2019-03-17T06:58:38.187Z,7.37
2019-03-17T07:01:06.605Z,7.18
2019-03-17T07:03:35.063Z,7.07
2019-03-17T07:06:03.498Z,7.00
2019-03-17T07:08:31.922Z,6.97
2019-03-17T07:11:00.702Z,6.93
2019-03-17T07:13:29.121Z,6.89
2019-03-17T07:15:57.564Z,6.87
2019-03-17T07:18:26.022Z,6.87
2019-03-17T07:20:54.484Z,6.88
2019-03-17T07:23:22.907Z,6.91
2019-03-17T07:25:51.351Z,6.90
2019-03-17T07:28:19.780Z,6.90
2019-03-17T07:30:48.215Z,6.87
2019-03-17T07:33:16.768Z,6.84
2019-03-17T07:35:46.450Z,6.82
2019-03-17T07:38:14.955Z,6.77
2019-03-17T07:40:43.407Z,6.71
2019-03-17T07:43:11.827Z,6.63
2019-03-17T07:45:40.265Z,6.60
2019-03-17T07:48:08.955Z,6.57
2019-03-17T07:50:37.368Z,6.57
2019-03-17T07:53:06.032Z,6.58
2019-03-17T07:55:34.593Z,6.60
2019-03-17T07:58:03.012Z,6.62
2019-03-17T08:00:32.483Z,6.65
2019-03-17T08:03:01.276Z,6.68
2019-03-17T08:05:29.761Z,6.72
2019-03-17T08:08:08.840Z,6.78
2019-03-17T08:10:28.734Z,6.86
2019-03-17T08:12:57.431Z,6.93
2019-03-17T08:15:25.868Z,6.96
2019-03-17T08:17:55.655Z,7.02
2019-03-17T08:20:24.422Z,7.05
2019-03-17T08:22:56.826Z,7.10
2019-03-17T08:25:25.546Z,7.15
2019-03-17T08:27:54.473Z,7.19
2019-03-17T08:30:23.450Z,7.23
2019-03-17T08:32:52.540Z,7.28
2019-03-17T08:35:22.637Z,7.32
2019-03-17T08:37:52.056Z,7.38
2019-03-17T08:40:21.697Z,7.45
2019-03-17T08:42:50.683Z,7.52
2019-03-17T08:45:19.454Z,7.62
2019-03-17T08:47:57.921Z,7.68
2019-03-17T08:50:19.225Z,7.74
2019-03-17T08:52:48.101Z,7.80
2019-03-17T08:55:16.538Z,7.84
2019-03-17T08:57:44.970Z,7.89
2019-03-17T09:00:18.124Z,7.94
2019-03-17T09:02:46.577Z,7.98
2019-03-17T09:05:14.984Z,7.95
2019-03-17T09:07:43.653Z,7.90
2019-03-17T09:10:13.550Z,7.84
2019-03-17T09:12:41.973Z,7.84
2019-03-17T09:15:10.677Z,7.87
2019-03-17T09:17:39.272Z,7.90
2019-03-17T09:20:12.818Z,7.89
2019-03-17T09:22:41.306Z,7.84
2019-03-17T09:25:10.943Z,7.85
2019-03-17T09:27:39.546Z,7.85
2019-03-17T09:30:26.615Z,7.87
2019-03-17T09:32:56.631Z,7.89
2019-03-17T09:35:25.467Z,7.90
2019-03-17T09:37:53.910Z,7.90
2019-03-17T09:40:22.708Z,7.91
2019-03-17T09:42:51.348Z,7.92
2019-03-17T09:45:19.730Z,7.92
2019-03-17T09:47:48.634Z,7.91
2019-03-17T09:50:21.213Z,7.90
2019-03-17T09:52:49.895Z,7.91
2019-03-17T09:55:19.776Z,7.91
2019-03-17T09:57:48.966Z,7.90
2019-03-17T10:00:21.705Z,7.93
2019-03-17T10:02:50.116Z,8.00
2019-03-17T10:05:18.616Z,8.06
2019-03-17T10:07:47.048Z,8.10
2019-03-17T10:10:21.388Z,8.15
2019-03-17T10:12:50.278Z,8.21
2019-03-17T10:15:19.947Z,8.28
2019-03-17T10:17:48.446Z,8.38
2019-03-17T10:20:20.587Z,8.46
2019-03-17T10:22:48.281Z,8.54
2019-03-17T10:25:17.653Z,8.65
2019-03-17T10:27:46.110Z,8.72
2019-03-17T10:30:21.888Z,8.71
2019-03-17T10:32:50.451Z,8.73
2019-03-17T10:35:19.146Z,8.78
2019-03-17T10:37:47.551Z,8.81
2019-03-17T10:40:18.336Z,8.85
2019-03-17T10:42:46.899Z,8.87
2019-03-17T10:45:16.274Z,8.87
2019-03-17T10:47:46.991Z,8.85
2019-03-17T10:50:20.909Z,8.84
2019-03-17T10:52:49.894Z,8.87
2019-03-17T10:55:18.721Z,8.95
2019-03-17T10:57:47.173Z,9.02
2019-03-17T11:00:23.730Z,9.08
2019-03-17T11:02:52.625Z,9.19
2019-03-17T11:05:21.442Z,9.28
2019-03-17T11:07:51.714Z,9.36
2019-03-17T11:10:22.468Z,9.41
2019-03-17T11:12:51.422Z,9.43
2019-03-17T11:15:21.317Z,9.45
2019-03-17T11:17:50.116Z,9.55
2019-03-17T11:20:18.802Z,9.65
2019-03-17T11:22:47.745Z,9.75
2019-03-17T11:25:18.377Z,9.86
2019-03-17T11:27:47.576Z,10.08
2019-03-17T11:30:18.099Z,10.40
2019-03-17T11:32:48.236Z,10.61
2019-03-17T11:35:17.386Z,10.73
2019-03-17T11:37:46.175Z,10.70
2019-03-17T11:40:19.871Z,10.60
2019-03-17T11:42:50.170Z,10.39
2019-03-17T11:45:19.097Z,10.13
2019-03-17T11:47:48.150Z,9.92
2019-03-17T11:50:18.382Z,9.75
2019-03-17T11:52:47.101Z,9.55
2019-03-17T11:55:15.909Z,9.44
2019-03-17T11:57:44.647Z,9.47
2019-03-17T12:00:17.751Z,9.56
2019-03-17T12:02:46.762Z,9.68
2019-03-17T12:05:15.554Z,9.81
2019-03-17T12:07:44.406Z,9.91
2019-03-17T12:10:20.274Z,9.94
2019-03-17T12:12:48.735Z,9.94
2019-03-17T12:15:21.691Z,9.86
2019-03-17T12:17:50.153Z,9.76
2019-03-17T12:20:18.715Z,9.67
2019-03-17T12:22:47.143Z,9.61
2019-03-17T12:25:17.454Z,9.64
2019-03-17T12:27:46.078Z,9.75
2019-03-17T12:30:19.592Z,9.84
2019-03-17T12:32:49.249Z,9.87
2019-03-17T12:35:17.955Z,9.82
2019-03-17T12:37:46.470Z,9.84
2019-03-17T12:40:14.997Z,9.99
2019-03-17T12:42:43.438Z,10.11
2019-03-17T12:45:12.532Z,10.13
2019-03-17T12:47:41.910Z,10.18
2019-03-17T12:50:18.395Z,10.21
2019-03-17T12:52:48.535Z,10.22
2019-03-17T12:55:17.266Z,10.25
2019-03-17T12:57:45.835Z,10.30
2019-03-17T13:00:23.425Z,10.37
2019-03-17T13:02:51.870Z,10.49
2019-03-17T13:05:20.343Z,10.70
2019-03-17T13:07:49.192Z,10.89
2019-03-17T13:10:22.260Z,11.03
2019-03-17T13:12:50.726Z,11.09
2019-03-17T13:15:19.723Z,11.03
2019-03-17T13:17:49.047Z,10.88
2019-03-17T13:20:19.248Z,10.66
2019-03-17T13:22:50.428Z,10.43
2019-03-17T13:25:20.713Z,10.31
2019-03-17T13:27:49.931Z,10.17
2019-03-17T13:30:20.879Z,10.04
2019-03-17T13:32:50.932Z,10.12
2019-03-17T13:35:21.148Z,10.11
2019-03-17T13:37:52.667Z,9.98
2019-03-17T13:40:29.585Z,9.79
2019-03-17T13:42:54.807Z,9.62
2019-03-17T13:45:23.845Z,9.52
2019-03-17T13:47:53.333Z,9.46
2019-03-17T13:50:25.888Z,9.45
2019-03-17T13:52:55.174Z,9.48
2019-03-17T13:55:23.708Z,9.49
2019-03-17T13:58:01.886Z,9.52
2019-03-17T14:00:33.549Z,9.56
2019-03-17T14:03:03.646Z,9.60
2019-03-17T14:05:36.608Z,9.59
2019-03-17T14:08:06.419Z,9.61
2019-03-17T14:10:41.081Z,9.64
2019-03-17T14:13:05.126Z,9.83
2019-03-17T14:15:33.750Z,9.94
2019-03-17T14:18:04.185Z,9.91
2019-03-17T14:20:32.940Z,9.88
2019-03-17T14:23:01.775Z,9.81
2019-03-17T14:25:33.262Z,9.70
2019-03-17T14:28:01.823Z,9.57
2019-03-17T14:30:30.553Z,9.46
2019-03-17T14:32:59.060Z,9.35
2019-03-17T14:35:27.509Z,9.25
2019-03-17T14:37:55.961Z,9.16
2019-03-17T14:40:24.483Z,8.98
2019-03-17T14:42:55.201Z,8.82
2019-03-17T14:45:23.120Z,8.67
2019-03-17T14:47:51.576Z,8.54
2019-03-17T14:50:26.478Z,8.48
2019-03-17T14:52:55.870Z,8.48
2019-03-17T14:55:24.301Z,8.55
2019-03-17T14:57:52.821Z,8.67
2019-03-17T15:00:23.149Z,8.86
2019-03-17T15:02:51.879Z,9.07
2019-03-17T15:05:20.653Z,9.20
2019-03-17T15:07:49.191Z,9.28
2019-03-17T15:10:19.038Z,9.25
2019-03-17T15:12:48.106Z,9.20
2019-03-17T15:15:23.721Z,9.10
2019-03-17T15:17:52.896Z,8.98
2019-03-17T15:20:26.614Z,8.81
2019-03-17T15:22:55.331Z,8.57
2019-03-17T15:25:24.004Z,8.30
2019-03-17T15:27:54.460Z,8.09
2019-03-17T15:30:34.177Z,7.91
2019-03-17T15:33:02.991Z,7.77
2019-03-17T15:35:31.668Z,7.68
2019-03-17T15:38:01.860Z,7.63
2019-03-17T15:40:30.731Z,7.61
2019-03-17T15:43:00.981Z,7.63
2019-03-17T15:45:29.638Z,7.68
2019-03-17T15:47:58.095Z,7.75
2019-03-17T15:50:30.992Z,7.85
2019-03-17T15:52:59.486Z,8.01
2019-03-17T15:55:27.950Z,8.21
2019-03-17T15:57:56.373Z,8.37
2019-03-17T16:00:31.660Z,8.47
2019-03-17T16:02:57.798Z,8.50
2019-03-17T16:05:26.290Z,8.53
2019-03-17T16:07:54.836Z,8.58
2019-03-17T16:10:24.999Z,8.67
2019-03-17T16:12:53.427Z,8.86
2019-03-17T16:15:21.923Z,9.18
2019-03-17T16:17:50.405Z,9.43
2019-03-17T16:20:22.863Z,9.55
2019-03-17T16:22:51.672Z,9.56
2019-03-17T16:25:25.662Z,9.46
2019-03-17T16:27:54.101Z,9.37
2019-03-17T16:30:33.802Z,9.24
2019-03-17T16:33:02.511Z,9.11
2019-03-17T16:35:31.003Z,8.99
2019-03-17T16:37:59.716Z,8.89
2019-03-17T16:40:32.990Z,8.79
2019-03-17T16:43:01.514Z,8.70
2019-03-17T16:45:30.002Z,8.63
2019-03-17T16:47:58.437Z,8.53
2019-03-17T16:50:27.005Z,8.42
2019-03-17T16:52:56.077Z,8.35
2019-03-17T16:55:26.851Z,8.28
2019-03-17T16:57:55.315Z,8.23
2019-03-17T17:00:25.174Z,8.07
2019-03-17T17:02:55.330Z,7.83
2019-03-17T17:05:24.877Z,7.64
2019-03-17T17:07:53.515Z,7.48
2019-03-17T17:10:23.687Z,7.40
2019-03-17T17:12:52.072Z,7.35
2019-03-17T17:15:25.918Z,7.30
2019-03-17T17:17:54.400Z,7.26
2019-03-17T17:20:36.270Z,7.21
2019-03-17T17:23:04.925Z,7.21
2019-03-17T17:25:33.342Z,7.22
2019-03-17T17:28:02.257Z,7.24
2019-03-17T17:30:30.671Z,7.26
2019-03-17T17:32:59.099Z,7.27
2019-03-17T17:35:27.544Z,7.28
2019-03-17T17:37:56.130Z,7.30
2019-03-17T17:40:26.045Z,7.31
2019-03-17T17:42:55.010Z,7.33
2019-03-17T17:45:26.856Z,7.34
2019-03-17T17:47:55.442Z,7.34
2019-03-17T17:50:25.987Z,7.33
2019-03-17T17:52:54.433Z,7.32
2019-03-17T17:55:22.856Z,7.29
2019-03-17T17:57:52.783Z,7.26
2019-03-17T18:00:23.582Z,7.21
2019-03-17T18:02:52.035Z,7.19
2019-03-17T18:05:20.781Z,7.14
2019-03-17T18:07:49.269Z,7.12
2019-03-17T18:10:18.646Z,7.12
2019-03-17T18:12:47.304Z,7.10
2019-03-17T18:15:21.822Z,7.07
2019-03-17T18:17:50.257Z,7.05
2019-03-17T18:20:19.038Z,7.03
2019-03-17T18:22:47.504Z,6.99
2019-03-17T18:25:17.698Z,6.98
2019-03-17T18:27:46.485Z,6.93
2019-03-17T18:30:17.514Z,6.93
2019-03-17T18:32:45.986Z,6.91
2019-03-17T18:35:14.716Z,6.89
2019-03-17T18:37:44.578Z,6.87
2019-03-17T18:40:22.882Z,6.87
2019-03-17T18:42:51.398Z,6.86
2019-03-17T18:45:21.269Z,6.82
2019-03-17T18:47:50.138Z,6.80
2019-03-17T18:50:20.562Z,6.78
2019-03-17T18:52:49.096Z,6.78
2019-03-17T18:55:17.576Z,6.79
2019-03-17T18:57:46.639Z,6.80
2019-03-17T19:00:17.260Z,6.78
2019-03-17T19:02:46.205Z,6.75
2019-03-17T19:05:15.856Z,6.73
2019-03-17T19:07:44.337Z,6.70
2019-03-17T19:10:17.452Z,6.69
2019-03-17T19:12:46.418Z,6.66
2019-03-17T19:15:18.469Z,6.63
2019-03-17T19:17:46.964Z,6.60
2019-03-17T19:20:16.871Z,6.58
2019-03-17T19:22:45.299Z,6.58
2019-03-17T19:25:25.008Z,6.59
2019-03-17T19:27:53.518Z,6.57
2019-03-17T19:30:22.886Z,6.55
2019-03-17T19:32:51.496Z,6.51
2019-03-17T19:35:20.346Z,6.47
2019-03-17T19:37:48.796Z,6.44
2019-03-17T19:40:21.402Z,6.39
2019-03-17T19:42:58.462Z,6.34
2019-03-17T19:45:20.605Z,6.28
2019-03-17T19:47:49.176Z,6.24
2019-03-17T19:50:24.122Z,6.20
2019-03-17T19:52:52.654Z,6.18
2019-03-17T19:55:21.560Z,6.14
2019-03-17T19:57:50.022Z,6.09
2019-03-17T20:00:22.384Z,6.04
2019-03-17T20:02:50.848Z,5.97
2019-03-17T20:05:19.313Z,5.92
2019-03-17T20:07:47.713Z,5.85
2019-03-17T20:10:30.035Z,5.82
2019-03-17T20:13:10.330Z,5.77
2019-03-17T20:15:28.643Z,5.73
2019-03-17T20:17:57.176Z,5.70
2019-03-17T20:20:25.617Z,5.66
2019-03-17T20:22:54.142Z,5.63
2019-03-17T20:25:22.719Z,5.60
2019-03-17T20:27:51.308Z,5.55
2019-03-17T20:30:20.198Z,5.53
2019-03-17T20:32:48.728Z,5.52
2019-03-17T20:35:17.818Z,5.48
2019-03-17T20:37:46.301Z,5.45
2019-03-17T20:40:18.697Z,5.42
2019-03-17T20:42:47.153Z,5.40
2019-03-17T20:45:16.252Z,5.39
2019-03-17T20:47:45.446Z,5.38
2019-03-17T20:50:20.119Z,5.37
2019-03-17T20:52:48.791Z,5.35
2019-03-17T20:55:17.643Z,5.34
2019-03-17T20:57:46.154Z,5.36
2019-03-17T21:00:19.366Z,5.36
2019-03-17T21:02:48.004Z,5.34
2019-03-17T21:05:16.618Z,5.33
2019-03-17T21:07:45.073Z,5.31
2019-03-17T21:10:17.698Z,5.31
2019-03-17T21:12:46.203Z,5.32
2019-03-17T21:15:15.956Z,5.30
2019-03-17T21:17:44.904Z,5.31
2019-03-17T21:20:18.224Z,5.31
2019-03-17T21:22:46.656Z,5.32
2019-03-17T21:25:15.105Z,5.31
2019-03-17T21:27:43.625Z,5.31
2019-03-17T21:30:15.066Z,5.30
2019-03-17T21:32:43.567Z,5.30
2019-03-17T21:35:12.165Z,5.29
2019-03-17T21:37:40.626Z,5.28
2019-03-17T21:40:11.330Z,5.25
2019-03-17T21:42:39.841Z,5.23
2019-03-17T21:45:10.368Z,5.23
2019-03-17T21:47:39.161Z,5.21
2019-03-17T21:50:10.698Z,5.18
2019-03-17T21:52:39.151Z,5.16
2019-03-17T21:55:09.157Z,5.15
2019-03-17T21:57:37.675Z,5.15
2019-03-17T22:00:09.527Z,5.15
2019-03-17T22:02:38.179Z,5.14
2019-03-17T22:05:06.691Z,5.14
2019-03-17T22:07:48.192Z,5.14
2019-03-17T22:10:08.668Z,5.15
2019-03-17T22:12:37.126Z,5.15
2019-03-17T22:15:08.245Z,5.16
2019-03-17T22:17:37.104Z,5.15
2019-03-17T22:20:10.465Z,5.14
2019-03-17T22:22:38.873Z,5.12
2019-03-17T22:25:09.222Z,5.11
2019-03-17T22:27:37.684Z,5.08
2019-03-17T22:30:12.001Z,5.08
2019-03-17T22:32:40.468Z,5.06
2019-03-17T22:35:10.284Z,5.06
2019-03-17T22:37:38.711Z,5.04
2019-03-17T22:40:10.482Z,5.02
2019-03-17T22:42:38.917Z,5.02
2019-03-17T22:45:14.838Z,5.04
2019-03-17T22:47:43.372Z,5.06
2019-03-17T22:50:19.639Z,5.07
2019-03-17T22:52:48.273Z,5.08
2019-03-17T22:55:16.876Z,5.12
2019-03-17T22:57:45.351Z,5.16
2019-03-17T23:00:20.574Z,5.19
2019-03-17T23:02:49.016Z,5.25
2019-03-17T23:05:17.457Z,5.30
2019-03-17T23:07:46.068Z,5.36
2019-03-17T23:10:14.474Z,5.37
2019-03-17T23:12:43.238Z,5.39
2019-03-17T23:15:13.114Z,5.42
2019-03-17T23:17:41.559Z,5.44
2019-03-17T23:20:15.349Z,5.46
2019-03-17T23:22:44.245Z,5.49
2019-03-17T23:25:12.957Z,5.51
2019-03-17T23:27:41.459Z,5.52
2019-03-17T23:30:18.303Z,5.50
2019-03-17T23:32:49.416Z,5.48
2019-03-17T23:35:18.349Z,5.43
2019-03-17T23:37:46.822Z,5.38
2019-03-17T23:40:16.384Z,5.25
2019-03-17T23:42:44.831Z,5.12
2019-03-17T23:45:14.249Z,5.02
2019-03-17T23:47:42.697Z,4.95
2019-03-17T23:50:12.962Z,4.90
2019-03-17T23:52:41.467Z,4.88
2019-03-17T23:55:12.217Z,4.87
2019-03-17T23:57:40.641Z,4.88
